アデレード空港の過去48時間の天気

アデレード空港 (Adelaide Airport)

現在時刻: 5/26 12:16 ACST (5/26 02:46 UTC) 以下の時間は現地時間です。

過去48時間のMETAR気象情報
時間 風向 風速(m/s) 視程 気温(℃) 湿度(%) 気圧(hPa) 天気現象
26 12:00 南西 5 10km以上 17 68 1017
26 11:30 南西 5 10km以上 17 68 1017
26 11:00 南南西 5 10km以上 17 77 1018
26 10:30 南南西 4 10km以上 17 77 1018
26 10:00 4 10km以上 16 82 1017
26 09:30 2 10km以上 16 88 1017
26 08:55 2 10km以上 15 94 1017
26 08:50 3 10km以上 15 94 1017 周辺でしゅう雨
26 08:30 南南西 4 6000m 15 88 1017 弱いしゅう雨
26 08:11 南南西 4 10km以上 15 88 1017 周辺でしゅう雨
26 08:00 3 3000m 15 94 1016 しゅう雨
26 07:47 南西 4 10km以上 16 88 1016 周辺でしゅう雨
26 07:30 西 4 10km以上 16 88 1016 周辺でしゅう雨
26 07:00 西南西 4 10km以上 15 88 1016
26 06:30 西 4 10km以上 16 88 1015
26 06:00 西 4 10km以上 16 88 1015
26 05:30 西 4 10km以上 16 88 1015
26 05:19 西 4 10km以上 16 88 1015
26 05:00 西 4 10km以上 16 88 1014
26 04:30 西 4 10km以上 16 88 1014
26 04:00 西 4 10km以上 16 88 1014
26 03:30 北北東 2 10km以上 16 88 1014
26 03:00 2 10km以上 15 94 1014
26 02:30 北北東 2 10km以上 16 88 1014
26 02:00 2 10km以上 16 88 1014
26 01:30 北北東 3 10km以上 16 88 1014
26 01:17 北東 3 10km以上 16 88 1014
26 01:00 北北西 1 10km以上 15 94 1014
26 00:30 4 10km以上 15 94 1014
26 00:19 3 10km以上 15 94 1014
26 00:00 3 10km以上 15 94 1014
25 23:30 北東 3 10km以上 15 94 1014
25 23:00 4 10km以上 14 94 1014
25 22:30 3 10km以上 15 88 1014
25 22:00 3 10km以上 15 94 1014
25 21:30 3 10km以上 15 94 1014
25 21:00 4 10km以上 15 94 1014
25 20:30 4 10km以上 15 94 1014
25 20:00 4 10km以上 16 88 1014
25 19:30 4 10km以上 16 88 1014
25 19:00 4 10km以上 16 88 1014
25 18:30 4 10km以上 16 88 1013
25 18:00 4 10km以上 17 83 1013
25 17:30 4 10km以上 17 88 1013
25 17:00 5 10km以上 17 88 1013
25 16:30 5 10km以上 18 77 1013
25 16:00 6 10km以上 17 88 1012 周辺でしゅう雨
25 15:30 7 10km以上 17 83 1012 周辺でしゅう雨
25 15:00 8 10km以上 17 88 1012
25 14:30 7 10km以上 17 88 1012
25 14:00 北北西 8 10km以上 17 83 1012
25 13:30 8 10km以上 17 83 1012 周辺でしゅう雨
25 13:00 5 10km以上 17 88 1013 弱いしゅう雨
25 12:30 6 10km以上 17 83 1013 弱いしゅう雨
25 12:00 北北東 6 10km以上 17 83 1013
25 11:30 北北東 6 10km以上 16 88 1014
25 11:00 北北東 6 8000m 16 88 1014 弱いしゅう雨
25 10:30 北北東 7 10km以上 15 94 1015 周辺でしゅう雨
25 10:00 北北東 7 10km以上 15 94 1015 弱いしゅう雨
25 09:30 北北東 5 9000m 15 88 1015 弱いしゅう雨
25 09:00 北北東 6 10km以上 15 88 1015 弱いしゅう雨
25 08:30 北北東 6 10km以上 15 88 1015 弱いしゅう雨
25 08:00 北北東 6 9000m 15 88 1015 弱いしゅう雨
25 07:30 北北東 6 9000m 15 88 1015 弱いしゅう雨
25 07:00 6 10km以上 16 77 1015 弱いしゅう雨
25 06:30 北北東 7 10km以上 16 77 1015
25 06:00 北北東 7 10km以上 16 77 1015
25 05:30 北北東 7 10km以上 17 68 1015
25 05:00 5 10km以上 16 77 1015
25 04:30 7 10km以上 17 68 1015
25 04:00 北北東 6 10km以上 18 60 1015
25 03:30 北北東 7 10km以上 18 60 1015
25 03:00 北北東 6 10km以上 18 60 1015
25 02:30 7 10km以上 18 60 1015
25 02:00 北北東 7 10km以上 18 60 1015
25 01:30 北北東 6 10km以上 18 60 1016
25 01:00 北北東 6 10km以上 18 60 1016
25 00:00 北北東 8 10km以上 18 60 1017
24 22:30 北東 5 10km以上 18 56 1018
24 22:00 北東 5 10km以上 18 56 1018
24 21:30 北東 6 10km以上 18 56 1018
24 21:00 北北東 5 10km以上 18 56 1018
24 20:30 北東 7 10km以上 18 56 1018
24 20:00 北東 7 10km以上 19 52 1018
24 19:30 北東 7 10km以上 19 52 1018
24 19:00 北東 6 10km以上 19 52 1018
24 18:30 北東 7 10km以上 19 52 1018
24 18:00 北東 6 10km以上 19 52 1018
24 17:30 北東 5 10km以上 19 52 1018
24 17:00 北東 5 10km以上 19 49 1018
24 16:30 北東 7 10km以上 20 46 1018
24 16:00 北東 8 10km以上 21 43 1018
24 15:30 北東 8 10km以上 21 43 1018
24 15:00 北北東 9 10km以上 21 43 1018
24 14:30 北北東 9 10km以上 21 43 1018
24 14:00 北北東 9 10km以上 21 46 1018
24 13:30 北北東 9 10km以上 22 43 1018
24 13:00 北北東 9 10km以上 21 46 1018
24 12:30 北北東 9 10km以上 21 49 1019
YPAD 260230Z 22009KT 9999 FEW020 17/11 Q1017
YPAD 260200Z 22010KT 9999 FEW018 17/11 Q1017
YPAD 260130Z 21009KT 9999 FEW018 17/13 Q1018
YPAD 260100Z 21008KT 9999 FEW015 17/13 Q1018
YPAD 260030Z 19007KT 9999 FEW011 SCT046 16/13 Q1017
YPAD 260000Z 19004KT 9999 FEW009 BKN046 16/14 Q1017
YPAD 252325Z AUTO 17004KT 9999 // SCT009 SCT015 SCT022 15/14 Q1017
YPAD 252320Z 17005KT 9999 VCSH FEW004 SCT009 BKN034 FEW025TCU 15/14 Q1017
YPAD 252300Z 21008KT 6000 -SHRA FEW006 SCT009 BKN034 FEW025TCU 15/13 Q1017
YPAD 252241Z 21007KT 9999 VCSH FEW006 BKN012 BKN020 FEW025TCU 15/13 Q1017 RESHRA
YPAD 252230Z 18005KT 3000 SHRA FEW006 BKN011 BKN034 SCT025TCU 15/14 Q1016
YPAD 252217Z 23007KT 9999 VCSH FEW006 BKN012 BKN041 FEW025TCU 16/14 Q1016
YPAD 252200Z 26007KT 9999 VCSH FEW013 BKN041 FEW025TCU 16/14 Q1016
YPAD 252130Z 25008KT 9999 FEW011 SCT042 FEW025TCU 15/13 Q1016
YPAD 252100Z 27007KT 9999 FEW012 SCT030 16/14 Q1015
YPAD 252030Z 27008KT 9999 SCT013 SCT024 BKN037 16/14 Q1015
YPAD 252000Z 27008KT 9999 SCT011 SCT032 BKN039 16/14 Q1015
YPAD 251949Z 27008KT 9999 SCT013 SCT032 BKN039 16/14 Q1015 RF00/0/001/4
YPAD 251930Z 26008KT 9999 BKN011 SCT024 BKN032 16/14 Q1014 RF00.0/001.4
YPAD 251900Z 27007KT 9999 SCT011 SCT024 BKN035 16/14 Q1014 RF00/0/001/4
YPAD 251830Z 28007KT 9999 BKN011 BKN021 BKN033 16/14 Q1014 RF00/0/001/4
YPAD 251800Z 02004KT 9999 SCT011 SCT018 16/14 Q1014
YPAD 251730Z 01004KT 9999 FEW011 SCT024 15/14 Q1014 RF00/0/001/4
YPAD 251700Z 03004KT 9999 SCT011 SCT019 BKN044 16/14 Q1014 RF00/0/001/4
YPAD 251630Z 36004KT 9999 FEW009 SCT023 BKN028 16/14 Q1014
YPAD 251600Z 02006KT 9999 FEW011 SCT019 16/14 Q1014
YPAD 251547Z 04006KT 9999 FEW011 SCT019 16/14 Q1014 RF00/0/001/4
YPAD 251530Z 34002KT 9999 FEW006 SCT011 BKN019 15/14 Q1014 RF00/0/001/4
YPAD 251500Z 36007KT 9999 SCT009 SCT018 BKN022 15/14 Q1014 RF00/0/001/4
YPAD 251449Z 36006KT 9999 SCT009 SCT012 BKN020 15/14 Q1014 RF00.0/001.4
YPAD 251430Z 36005KT 9999 FEW016 BKN022 BKN060 15/14 Q1014
YPAD 251400Z 04005KT 9999 FEW018 SCT025 15/14 Q1014
YPAD 251330Z 35007KT 9999 FEW020 SCT080 14/13 Q1014
YPAD 251300Z 01006KT 9999 FEW020 SCT080 15/13 Q1014
YPAD 251230Z 01006KT 9999 FEW020 BKN080 15/14 Q1014
YPAD 251200Z 01006KT 9999 FEW020 SCT038 BKN056 15/14 Q1014
YPAD 251130Z 01007KT 9999 FEW030 BKN048 15/14 Q1014
YPAD 251100Z 01007KT 9999 FEW018 BKN052 15/14 Q1014
YPAD 251030Z 36007KT 9999 FEW018 SCT026 FEW026TCU 16/14 Q1014
YPAD 251000Z 01008KT 9999 FEW018 SCT028 FEW028TCU 16/14 Q1014 DISTANT
YPAD 250930Z 01008KT 9999 FEW020 SCT030 BKN061 16/14 Q1014
YPAD 250900Z 36007KT 9999 FEW016 SCT048 16/14 Q1013
YPAD 250830Z 36008KT 9999 FEW016 BKN048 17/14 Q1013
YPAD 250800Z 36008KT 9999 FEW016 SCT035 BKN045 17/15 Q1013
YPAD 250730Z 35010KT 9999 FEW016 BKN040 17/15 Q1013
YPAD 250700Z 35009KT 9999 FEW016 SCT036 18/14 Q1013
YPAD 250630Z 35011KT 9999 VCSH FEW015 SCT020 BKN036 17/15 Q1012
YPAD 250600Z 35013KT 9999 VCSH FEW015 SCT020 OVC036 17/14 Q1012
YPAD 250530Z 35015KT 9999 FEW016 SCT028 BKN036 17/15 Q1012
YPAD 250500Z 35014KT 9999 FEW015 SCT020 BKN044 17/15 Q1012
YPAD 250430Z 34016KT 9999 FEW015 SCT021 BKN030 17/14 Q1012
YPAD 250400Z 35015KT 9999 VCSH FEW015 BKN020 BKN034 17/14 Q1012
YPAD 250330Z 01009KT 9999 -SHRA FEW015 OVC020 17/15 Q1013
YPAD 250300Z 01011KT 9999 -SHRA FEW014 BKN020 17/14 Q1013
YPAD 250230Z 03011KT 9999 FEW015 SCT020 OVC044 17/14 Q1013
YPAD 250200Z 03011KT 9999 FEW017 SCT028 BKN036 16/14 Q1014
YPAD 250130Z 03012KT 8000 -SHRA FEW013 SCT027 OVC046 16/14 Q1014
YPAD 250100Z 02013KT 9999 VCSH FEW013 SCT025 BKN052 15/14 Q1015
YPAD 250030Z 02014KT 9999 -SHRA FEW013 SCT015 OVC052 15/14 Q1015
YPAD 250000Z 03010KT 9000 -SHRA FEW017 SCT026 OVC062 15/13 Q1015
YPAD 242330Z 03012KT 9999 -SHRA FEW019 SCT027 OVC076 15/13 Q1015
YPAD 242300Z 02012KT 9999 -SHRA FEW019 SCT026 OVC035 15/13 Q1015
YPAD 242230Z 03011KT 9000 -SHRA FEW020 SCT029 OVC088 15/13 Q1015
YPAD 242200Z 02012KT 9000 -SHRA FEW020 SCT029 OVC088 15/13 Q1015
YPAD 242130Z 01012KT 9999 -SHRA FEW020 SCT029 OVC088 16/12 Q1015
YPAD 242100Z AUTO 02014KT 9999 // SCT042 SCT068 OVC091 16/12 Q1015
YPAD 242030Z AUTO 02013KT 9999 // SCT046 OVC091 16/12 Q1015
YPAD 242000Z AUTO 02013KT 9999 // SCT060 SCT074 OVC089 17/11 Q1015
YPAD 241930Z AUTO 01010KT 9999 // SCT078 OVC100 16/12 Q1015
YPAD 241900Z AUTO 01013KT 9999 // BKN100 OVC115 17/11 Q1015
YPAD 241830Z AUTO 02012KT 9999 // BKN115 18/10 Q1015
YPAD 241800Z AUTO 02013KT 9999 // SCT125 18/10 Q1015
YPAD 241730Z AUTO 03012KT 9999 // OVC125 18/10 Q1015
YPAD 241700Z AUTO 01014KT 9999 // SCT125 18/10 Q1015
YPAD 241630Z AUTO 03013KT 9999 // OVC125 18/10 Q1015
YPAD 241600Z AUTO 03012KT 9999 // SCT071 BKN100 OVC125 18/10 Q1016
YPAD 241530Z AUTO 03012KT 9999 // SCT079 OVC105 18/10 Q1016
YPAD 241430Z 03015KT CAVOK 18/10 Q1017
YPAD 241300Z 04009KT CAVOK 18/09 Q1018
YPAD 241230Z 05010KT CAVOK 18/09 Q1018
YPAD 241200Z 04011KT CAVOK 18/09 Q1018
YPAD 241130Z 03010KT CAVOK 18/09 Q1018
YPAD 241100Z 05014KT CAVOK 18/09 Q1018
YPAD 241030Z 05014KT CAVOK 19/09 Q1018
YPAD 241000Z 05013KT CAVOK 19/09 Q1018
YPAD 240930Z 04011KT CAVOK 19/09 Q1018
YPAD 240900Z 04013KT CAVOK 19/09 Q1018
YPAD 240830Z 05012KT CAVOK 19/09 Q1018
YPAD 240800Z 05010KT CAVOK 19/09 Q1018
YPAD 240730Z 05010KT CAVOK 19/08 Q1018
YPAD 240700Z 04013KT CAVOK 20/08 Q1018
YPAD 240630Z 04015KT CAVOK 21/08 Q1018
YPAD 240600Z 04015KT CAVOK 21/08 Q1018
YPAD 240530Z 03017KT 9999 FEW040 OVC330 21/08 Q1018
YPAD 240500Z 02017KT 9999 FEW040 OVC330 21/08 Q1018
YPAD 240430Z 03018KT 9999 FEW038 OVC330 21/09 Q1018
YPAD 240400Z 03018KT 9999 FEW038 BKN330 22/09 Q1018
YPAD 240330Z 03018KT 9999 FEW038 BKN240 BKN330 21/09 Q1018
YPAD 240300Z 02017KT 9999 FEW036 SCT240 BKN330 21/10 Q1019